RELEVES METEO NEUVILLE
Donnes mto: Actuelle jeudi, 01/10/2020 09:55
Date Horaire Temp. E. Hum. E. P.atmo. Pluie Vent Direction Direction P. de rose Temp au vent Rafales
01/10/2020 09:55 13,7 C 96 % 997,7 hPa 0,0 mm 2,9 km/h (1 Bft) S-SO 196 13,1 C 13,7 C 11,3 km/h (2 Bft)
01/10/2020 09:50 13,6 C 96 % 997,8 hPa 0,0 mm 2,0 km/h (1 Bft) S-SO 196 13,0 C 13,6 C 11,3 km/h (2 Bft)
01/10/2020 09:45 13,6 C 96 % 997,9 hPa 0,0 mm 4,9 km/h (1 Bft) S-SO 196 13,0 C 13,6 C 16,1 km/h (3 Bft)
01/10/2020 09:40 13,6 C 96 % 998,0 hPa 0,0 mm 5,8 km/h (2 Bft) S-SO 205 13,0 C 13,6 C 16,1 km/h (3 Bft)
01/10/2020 09:35 13,6 C 96 % 998,0 hPa 0,2 mm 2,6 km/h (1 Bft) S 176 13,0 C 13,6 C 14,5 km/h (3 Bft)
01/10/2020 09:30 13,6 C 96 % 998,0 hPa 0,0 mm 5,1 km/h (1 Bft) S 180 13,0 C 13,6 C 14,5 km/h (3 Bft)
01/10/2020 09:25 13,7 C 96 % 998,1 hPa 0,4 mm 4,8 km/h (1 Bft) S-SO 212 13,1 C 13,7 C 17,7 km/h (3 Bft)
01/10/2020 09:20 13,7 C 96 % 998,2 hPa 0,2 mm 3,2 km/h (1 Bft) S-SO 204 13,1 C 13,7 C 11,3 km/h (2 Bft)
01/10/2020 09:15 13,8 C 96 % 998,2 hPa 0,2 mm 2,0 km/h (1 Bft) S-SO 197 13,2 C 13,8 C 14,5 km/h (3 Bft)
01/10/2020 09:10 13,8 C 96 % 998,1 hPa 0,0 mm 2,4 km/h (1 Bft) S-SE 165 13,2 C 13,8 C 14,5 km/h (3 Bft)
01/10/2020 09:05 13,8 C 96 % 998,1 hPa 0,0 mm 2,7 km/h (1 Bft) S-SO 200 13,2 C 13,8 C 11,3 km/h (2 Bft)
01/10/2020 09:00 13,8 C 96 % 998,1 hPa 0,0 mm 0,9 km/h (0 Bft) S-SO 200 13,2 C 13,8 C 16,1 km/h (3 Bft)
01/10/2020 08:55 13,8 C 96 % 998,1 hPa 0,0 mm 2,9 km/h (1 Bft) S 186 13,2 C 13,8 C 16,1 km/h (3 Bft)
01/10/2020 08:50 13,8 C 96 % 998,2 hPa 0,0 mm 3,5 km/h (1 Bft) S 186 13,2 C 13,8 C 14,5 km/h (3 Bft)
01/10/2020 08:45 13,7 C 96 % 998,3 hPa 0,0 mm 2,0 km/h (1 Bft) SE 136 13,1 C 13,7 C 9,7 km/h (2 Bft)
01/10/2020 08:40 13,7 C 96 % 998,3 hPa 0,0 mm 2,5 km/h (1 Bft) S-SO 205 13,1 C 13,7 C 11,3 km/h (2 Bft)
01/10/2020 08:35 13,7 C 96 % 998,4 hPa 0,0 mm 2,6 km/h (1 Bft) S-SE 167 13,1 C 13,7 C 11,3 km/h (2 Bft)
01/10/2020 08:30 13,7 C 96 % 998,5 hPa 0,0 mm 3,6 km/h (1 Bft) S-SO 198 13,1 C 13,7 C 12,9 km/h (3 Bft)
01/10/2020 08:25 13,7 C 96 % 998,6 hPa 0,0 mm 3,0 km/h (1 Bft) S 174 13,1 C 13,7 C 11,3 km/h (2 Bft)
01/10/2020 08:20 13,7 C 96 % 998,7 hPa 0,0 mm 1,6 km/h (1 Bft) S 178 13,1 C 13,7 C 11,3 km/h (2 Bft)
01/10/2020 08:15 13,7 C 96 % 998,7 hPa 0,0 mm 1,1 km/h (1 Bft) S 181 13,1 C 13,7 C 8,0 km/h (2 Bft)
_ Min-Heure 09:30 02:35 09:55 - 00:10 - - 06:20 09:30 00:10
Minimum _ 13,6 C 88 % 997,7 hPa - 0,0 km/h (0 Bft) - - 12,9 C 13,6 C 0,0 km/h (0 Bft)
_ Max-Heure 00:00 07:10 00:00 09:25 09:40 - - 00:00 00:00 03:30
Maximum _ 15,4 C 96 % 1005,7 hPa 0,4 mm 5,8 km/h
S-SO (2 Bft)
- - 13,8 C 15,4 C 17,7 km/h
S (3 Bft)
Moyenne _ 14,5 C 92 % 1001,6 hPa #3,8 mm 1,9 km/h (1 Bft) S-SO - 13,2 C 14,5 C 11,1 km/h (2 Bft)
NEUVILLE ST REMY